createdAt,value
2023-02-25T00:02:04.800Z,4.80
2023-02-25T00:04:32.369Z,5.00
2023-02-25T00:06:59.580Z,4.67
2023-02-25T00:09:27.093Z,4.60
2023-02-25T00:11:54.242Z,4.70
2023-02-25T00:14:21.381Z,4.13
2023-02-25T00:16:50.228Z,5.90
2023-02-25T00:19:17.396Z,4.70
2023-02-25T00:21:44.601Z,5.73
2023-02-25T00:24:16.739Z,5.40
2023-02-25T00:26:44.718Z,4.57
2023-02-25T00:29:11.767Z,5.17
2023-02-25T00:31:39.030Z,4.40
2023-02-25T00:34:06.129Z,5.17
2023-02-25T00:36:33.246Z,5.67
2023-02-25T00:39:00.377Z,5.77
2023-02-25T00:41:28.688Z,3.90
2023-02-25T00:43:57.081Z,4.47
2023-02-25T00:46:24.504Z,4.23
2023-02-25T00:48:51.820Z,5.90
2023-02-25T00:51:21.191Z,4.83
2023-02-25T00:53:48.584Z,4.23
2023-02-25T00:56:17.160Z,6.03
2023-02-25T00:58:45.439Z,5.17
2023-02-25T01:01:33.416Z,4.97
2023-02-25T01:04:01.070Z,5.37
2023-02-25T01:06:28.727Z,6.67
2023-02-25T01:08:56.175Z,4.80
2023-02-25T01:11:27.712Z,6.13
2023-02-25T01:13:55.694Z,5.17
2023-02-25T01:16:24.656Z,6.60
2023-02-25T01:18:55.948Z,5.27
2023-02-25T01:21:26.438Z,5.67
2023-02-25T01:23:58.725Z,7.73
2023-02-25T01:26:26.791Z,6.43
2023-02-25T01:28:53.841Z,6.43
2023-02-25T01:31:29.303Z,6.70
2023-02-25T01:34:00.413Z,6.67
2023-02-25T01:36:27.730Z,6.57
2023-02-25T01:38:56.253Z,4.20
2023-02-25T01:41:23.864Z,5.90
2023-02-25T01:44:04.713Z,6.97
2023-02-25T01:46:32.180Z,5.67
2023-02-25T01:48:59.523Z,5.00
2023-02-25T01:51:28.137Z,4.90
2023-02-25T01:53:56.327Z,5.90
2023-02-25T01:56:25.925Z,5.40
2023-02-25T01:58:53.438Z,3.93
2023-02-25T02:01:22.762Z,6.37
2023-02-25T02:03:50.970Z,5.23
2023-02-25T02:06:23.407Z,7.80
2023-02-25T02:08:50.968Z,5.83
2023-02-25T02:11:18.266Z,5.10
2023-02-25T02:13:47.727Z,7.83
2023-02-25T02:16:14.812Z,4.77
2023-02-25T02:18:44.362Z,5.93
2023-02-25T02:21:11.877Z,4.80
2023-02-25T02:23:48.213Z,6.83
2023-02-25T02:26:26.229Z,5.77
2023-02-25T02:28:53.291Z,3.47
2023-02-25T02:31:26.565Z,4.53
2023-02-25T02:34:20.066Z,3.17
2023-02-25T02:36:49.971Z,7.43
2023-02-25T02:39:27.234Z,3.00
2023-02-25T02:42:03.501Z,3.23
2023-02-25T02:44:37.724Z,5.87
2023-02-25T02:47:07.383Z,3.53
2023-02-25T02:49:43.927Z,3.00
2023-02-25T02:52:24.122Z,3.97
2023-02-25T02:54:57.127Z,5.10
2023-02-25T02:57:28.149Z,3.20
2023-02-25T03:00:02.155Z,4.97
2023-02-25T03:02:34.588Z,6.73
2023-02-25T03:05:03.660Z,4.07
2023-02-25T03:07:32.424Z,5.87
2023-02-25T03:10:01.271Z,4.10
2023-02-25T03:12:30.103Z,5.63
2023-02-25T03:14:57.505Z,3.50
2023-02-25T03:17:26.749Z,3.97
2023-02-25T03:19:57.244Z,1.53
2023-02-25T03:22:27.681Z,1.77
2023-02-25T03:24:59.572Z,3.93
2023-02-25T03:27:34.281Z,2.67
2023-02-25T03:30:12.923Z,2.87
2023-02-25T03:32:45.681Z,4.20
2023-02-25T03:35:14.104Z,3.00
2023-02-25T03:37:42.663Z,3.20
2023-02-25T03:40:11.433Z,2.77
2023-02-25T03:42:40.086Z,3.50
2023-02-25T03:45:08.654Z,6.67
2023-02-25T03:47:37.895Z,2.10
2023-02-25T03:50:24.764Z,2.77
2023-02-25T03:52:52.007Z,3.27
2023-02-25T03:55:19.360Z,2.60
2023-02-25T03:57:48.871Z,3.37
2023-02-25T04:00:18.058Z,2.93
2023-02-25T04:02:47.026Z,1.40
2023-02-25T04:05:14.605Z,1.97
2023-02-25T04:07:41.696Z,3.23
2023-02-25T04:10:09.751Z,3.03
2023-02-25T04:12:36.801Z,1.87
2023-02-25T04:15:05.868Z,3.23
2023-02-25T04:17:33.409Z,1.60
2023-02-25T04:20:00.723Z,3.47
2023-02-25T04:22:27.811Z,3.03
2023-02-25T04:24:54.851Z,4.27
2023-02-25T04:27:21.987Z,2.87
2023-02-25T04:29:49.028Z,1.20
2023-02-25T04:32:16.258Z,4.43
2023-02-25T04:34:43.417Z,3.67
2023-02-25T04:37:10.508Z,5.80
2023-02-25T04:39:37.894Z,3.83
2023-02-25T04:42:05.034Z,1.97
2023-02-25T04:44:32.138Z,2.27
2023-02-25T04:46:59.215Z,3.37
2023-02-25T04:49:26.313Z,3.03
2023-02-25T04:51:53.458Z,1.90
2023-02-25T04:54:20.939Z,0.90
2023-02-25T04:56:48.502Z,1.40
2023-02-25T04:59:16.336Z,1.23
2023-02-25T05:01:43.842Z,0.50
2023-02-25T05:04:10.952Z,0.97
2023-02-25T05:06:39.136Z,1.40
2023-02-25T05:09:06.963Z,1.50
2023-02-25T05:11:34.811Z,3.23
2023-02-25T05:14:01.990Z,1.77
2023-02-25T05:16:29.153Z,1.30
2023-02-25T05:18:56.541Z,2.10
2023-02-25T05:21:24.360Z,0.80
2023-02-25T05:23:53.252Z,0.87
2023-02-25T05:26:22.169Z,0.73
2023-02-25T05:28:53.546Z,1.47
2023-02-25T05:31:21.102Z,2.33
2023-02-25T05:33:48.309Z,1.00
2023-02-25T05:36:15.976Z,1.00
2023-02-25T05:38:43.581Z,0.67
2023-02-25T05:41:11.710Z,1.37
2023-02-25T05:43:39.190Z,1.77
2023-02-25T05:46:11.438Z,1.67
2023-02-25T05:48:39.131Z,1.00
2023-02-25T05:51:07.342Z,0.63
2023-02-25T05:53:35.023Z,1.77
2023-02-25T05:56:12.250Z,0.70
2023-02-25T05:58:39.415Z,1.67
2023-02-25T06:01:14.463Z,1.20
2023-02-25T06:03:42.412Z,1.63
2023-02-25T06:06:12.813Z,1.00
2023-02-25T06:08:40.185Z,1.27
2023-02-25T06:11:07.786Z,1.20
2023-02-25T06:13:35.469Z,1.83
2023-02-25T06:16:05.947Z,1.13
2023-02-25T06:18:37.026Z,1.73
2023-02-25T06:21:06.386Z,1.10
2023-02-25T06:23:34.004Z,0.83
2023-02-25T06:26:01.152Z,0.90
2023-02-25T06:28:28.196Z,1.77
2023-02-25T06:30:55.522Z,1.03
2023-02-25T06:33:22.657Z,1.43
2023-02-25T06:35:53.246Z,2.07
2023-02-25T06:38:20.527Z,1.60
2023-02-25T06:40:48.101Z,1.83
2023-02-25T06:43:15.244Z,1.63
2023-02-25T06:45:42.401Z,2.13
2023-02-25T06:48:09.576Z,2.43
2023-02-25T06:50:38.955Z,3.00
2023-02-25T06:53:06.205Z,2.67
2023-02-25T06:55:33.306Z,2.13
2023-02-25T06:58:00.446Z,1.73
2023-02-25T07:00:27.655Z,2.27
2023-02-25T07:02:54.691Z,2.83
2023-02-25T07:05:21.794Z,2.60
2023-02-25T07:07:48.842Z,2.07
2023-02-25T07:10:15.895Z,2.53
2023-02-25T07:12:43.010Z,3.23
2023-02-25T07:15:10.587Z,3.47
2023-02-25T07:17:37.782Z,2.60
2023-02-25T07:20:04.960Z,2.20
2023-02-25T07:22:32.086Z,1.40
2023-02-25T07:24:59.163Z,2.23
2023-02-25T07:27:27.189Z,2.20
2023-02-25T07:29:55.129Z,2.97
2023-02-25T07:32:24.570Z,1.87
2023-02-25T07:34:51.807Z,3.10
2023-02-25T07:37:18.927Z,1.50
2023-02-25T07:39:47.715Z,3.37
2023-02-25T07:42:14.918Z,2.23
2023-02-25T07:44:42.044Z,2.23
2023-02-25T07:47:09.216Z,2.80
2023-02-25T07:49:36.336Z,1.37
2023-02-25T07:52:03.431Z,3.13
2023-02-25T07:54:30.486Z,1.70
2023-02-25T07:56:57.638Z,3.77
2023-02-25T07:59:24.701Z,1.77
2023-02-25T08:01:51.885Z,1.53
2023-02-25T08:04:18.963Z,1.63
2023-02-25T08:06:47.161Z,2.20
2023-02-25T08:09:14.315Z,2.97
2023-02-25T08:11:41.570Z,2.53
2023-02-25T08:14:08.624Z,4.77
2023-02-25T08:16:35.684Z,3.10
2023-02-25T08:19:03.825Z,2.33
2023-02-25T08:21:30.916Z,3.97
2023-02-25T08:23:58.135Z,1.53
2023-02-25T08:26:27.404Z,1.97
2023-02-25T08:28:54.821Z,3.03
2023-02-25T08:31:22.864Z,2.00
2023-02-25T08:33:52.760Z,4.03
2023-02-25T08:36:21.437Z,3.60
2023-02-25T08:38:48.932Z,2.63
2023-02-25T08:41:16.008Z,2.43
2023-02-25T08:43:44.090Z,2.40
2023-02-25T08:46:11.384Z,1.77
2023-02-25T08:48:38.484Z,2.40
2023-02-25T08:51:09.852Z,2.40
2023-02-25T08:53:38.672Z,2.43
2023-02-25T08:56:10.515Z,2.03
2023-02-25T08:58:37.887Z,2.83
2023-02-25T09:01:12.816Z,1.60
2023-02-25T09:03:41.117Z,2.83
2023-02-25T09:06:08.231Z,1.33
2023-02-25T09:08:35.319Z,1.97
2023-02-25T09:11:05.506Z,2.07
2023-02-25T09:13:32.582Z,3.77
2023-02-25T09:16:00.050Z,1.20
2023-02-25T09:18:27.191Z,1.50
2023-02-25T09:20:54.386Z,1.13
2023-02-25T09:23:21.572Z,2.27
2023-02-25T09:25:48.665Z,1.13
2023-02-25T09:28:15.821Z,1.43
2023-02-25T09:30:45.930Z,1.30
2023-02-25T09:33:13.350Z,1.47
2023-02-25T09:35:43.464Z,1.40
2023-02-25T09:38:11.272Z,1.33
2023-02-25T09:40:38.600Z,1.33
2023-02-25T09:43:09.745Z,2.67
2023-02-25T09:45:37.491Z,1.00
2023-02-25T09:48:14.946Z,1.03
2023-02-25T09:50:43.966Z,2.97
2023-02-25T09:53:15.497Z,1.17
2023-02-25T09:55:44.255Z,1.20
2023-02-25T09:58:30.283Z,2.93
2023-02-25T10:01:05.544Z,1.83
2023-02-25T10:03:41.891Z,0.97
2023-02-25T10:06:14.892Z,1.50
2023-02-25T10:09:00.262Z,1.10
2023-02-25T10:11:30.594Z,1.10
2023-02-25T10:14:12.992Z,1.13
2023-02-25T10:16:49.077Z,1.40
2023-02-25T10:19:25.257Z,1.70
2023-02-25T10:21:55.368Z,2.03
2023-02-25T10:24:25.299Z,1.77
2023-02-25T10:26:56.298Z,1.30
2023-02-25T10:29:29.247Z,1.60
2023-02-25T10:31:59.732Z,1.93
2023-02-25T10:34:29.455Z,2.37
2023-02-25T10:37:00.493Z,3.97
2023-02-25T10:39:28.474Z,2.53
2023-02-25T10:41:56.678Z,1.73
2023-02-25T10:44:23.846Z,1.33
2023-02-25T10:46:54.146Z,1.43
2023-02-25T10:49:23.061Z,1.00
2023-02-25T10:52:05.463Z,2.10
2023-02-25T10:54:33.463Z,1.00
2023-02-25T10:57:02.327Z,1.83
2023-02-25T10:59:39.987Z,1.17
2023-02-25T11:02:22.033Z,1.37
2023-02-25T11:04:50.234Z,1.93
2023-02-25T11:07:25.567Z,1.90
2023-02-25T11:10:11.146Z,1.57
2023-02-25T11:12:44.496Z,2.30
2023-02-25T11:15:25.374Z,3.60
2023-02-25T11:18:05.079Z,1.20
2023-02-25T11:20:32.700Z,1.73
2023-02-25T11:23:00.570Z,3.77
2023-02-25T11:25:38.818Z,1.33
2023-02-25T11:28:08.057Z,1.87
2023-02-25T11:30:37.559Z,1.27
2023-02-25T11:33:22.633Z,1.43
2023-02-25T11:35:56.064Z,1.87
2023-02-25T11:38:28.417Z,2.13
2023-02-25T11:40:55.983Z,1.70
2023-02-25T11:43:24.397Z,1.83
2023-02-25T11:45:53.757Z,2.50
2023-02-25T11:48:22.738Z,2.33
2023-02-25T11:51:04.234Z,2.33
2023-02-25T11:53:40.530Z,2.70
2023-02-25T11:56:07.549Z,3.13
2023-02-25T11:58:46.053Z,2.80
2023-02-25T12:01:21.784Z,1.67
2023-02-25T12:04:09.112Z,2.20
2023-02-25T12:06:36.132Z,2.07
2023-02-25T12:09:06.725Z,2.30
2023-02-25T12:11:54.141Z,1.80
2023-02-25T12:14:39.790Z,1.30
2023-02-25T12:17:19.152Z,3.03
2023-02-25T12:19:49.038Z,1.50
2023-02-25T12:22:34.272Z,1.87
2023-02-25T12:25:04.136Z,2.33
2023-02-25T12:27:49.921Z,2.20
2023-02-25T12:30:26.186Z,1.93
2023-02-25T12:32:53.746Z,2.30
2023-02-25T12:35:27.227Z,1.90
2023-02-25T12:37:54.612Z,1.97
2023-02-25T12:40:36.493Z,1.60
2023-02-25T12:43:21.700Z,1.60
2023-02-25T12:46:09.051Z,1.33
2023-02-25T12:48:56.435Z,3.43
2023-02-25T12:51:32.774Z,1.40
2023-02-25T12:54:15.200Z,2.17
2023-02-25T12:57:00.541Z,0.90
2023-02-25T12:59:41.744Z,2.83
2023-02-25T13:02:18.332Z,1.70
2023-02-25T13:04:54.843Z,1.23
2023-02-25T13:07:22.711Z,1.40
2023-02-25T13:10:01.805Z,1.00
2023-02-25T13:12:28.839Z,1.33
2023-02-25T13:15:09.821Z,1.30
2023-02-25T13:18:00.338Z,1.50
2023-02-25T13:20:35.528Z,1.60
2023-02-25T13:23:08.414Z,1.53
2023-02-25T13:25:38.356Z,1.67
2023-02-25T13:28:23.947Z,1.03
2023-02-25T13:30:51.032Z,1.47
2023-02-25T13:33:33.230Z,0.97
2023-02-25T13:36:12.129Z,1.80
2023-02-25T13:38:54.258Z,1.40
2023-02-25T13:41:24.477Z,1.60
2023-02-25T13:43:55.236Z,1.33
2023-02-25T13:46:44.157Z,1.37
2023-02-25T13:49:23.254Z,1.40
2023-02-25T13:52:09.544Z,0.87
2023-02-25T13:54:55.142Z,1.27
2023-02-25T13:57:25.373Z,0.73
2023-02-25T14:00:04.794Z,0.80
2023-02-25T14:02:47.339Z,1.63
2023-02-25T14:05:33.350Z,1.10
2023-02-25T14:08:04.988Z,1.33
2023-02-25T14:10:32.059Z,0.67
2023-02-25T14:13:02.039Z,1.13
2023-02-25T14:15:52.142Z,2.00
2023-02-25T14:18:19.218Z,1.23
2023-02-25T14:20:51.893Z,1.43
2023-02-25T14:23:28.742Z,1.13
2023-02-25T14:26:16.079Z,1.17
2023-02-25T14:28:46.276Z,0.77
2023-02-25T14:31:14.174Z,0.60
2023-02-25T14:33:47.086Z,1.10
2023-02-25T14:36:30.501Z,0.30
2023-02-25T14:39:03.678Z,0.47
2023-02-25T14:41:30.721Z,0.30
2023-02-25T14:44:00.372Z,0.33
2023-02-25T14:46:27.503Z,0.70
2023-02-25T14:49:26.630Z,1.10
2023-02-25T14:52:08.247Z,0.63
2023-02-25T14:54:53.765Z,0.70
2023-02-25T14:57:39.717Z,0.60
2023-02-25T15:00:25.935Z,0.63
2023-02-25T15:02:53.078Z,0.67
2023-02-25T15:05:20.183Z,1.83
2023-02-25T15:08:05.275Z,1.33
2023-02-25T15:10:44.855Z,1.80
2023-02-25T15:13:17.792Z,0.80
2023-02-25T15:15:48.210Z,0.40
2023-02-25T15:18:18.250Z,1.10
2023-02-25T15:20:45.512Z,0.50
2023-02-25T15:23:12.839Z,0.70
2023-02-25T15:25:44.694Z,0.90
2023-02-25T15:28:29.811Z,1.17
2023-02-25T15:31:02.902Z,0.50
2023-02-25T15:33:36.283Z,1.10
2023-02-25T15:36:15.421Z,1.53
2023-02-25T15:38:51.557Z,1.00
2023-02-25T15:41:27.684Z,1.00
2023-02-25T15:44:00.828Z,2.13
2023-02-25T15:46:37.088Z,1.30
2023-02-25T15:49:23.188Z,2.47
2023-02-25T15:51:51.841Z,0.73
2023-02-25T15:54:45.117Z,0.70
2023-02-25T15:57:12.217Z,0.60
2023-02-25T15:59:45.389Z,0.60
2023-02-25T16:02:30.477Z,2.40
2023-02-25T16:04:58.848Z,1.10
2023-02-25T16:07:32.120Z,1.50
2023-02-25T16:10:06.318Z,1.00
2023-02-25T16:12:33.664Z,0.80
2023-02-25T16:15:01.301Z,1.50
2023-02-25T16:17:30.994Z,1.43
2023-02-25T16:20:11.921Z,0.97
2023-02-25T16:22:40.946Z,1.90
2023-02-25T16:25:15.155Z,5.97
2023-02-25T16:27:42.189Z,0.80
2023-02-25T16:30:24.651Z,1.57
2023-02-25T16:32:53.786Z,1.40
2023-02-25T16:35:48.431Z,1.10
2023-02-25T16:38:28.997Z,0.90
2023-02-25T16:40:56.091Z,1.00
2023-02-25T16:43:26.725Z,1.90
2023-02-25T16:45:56.901Z,1.77
2023-02-25T16:48:28.500Z,0.60
2023-02-25T16:50:56.480Z,2.87
2023-02-25T16:53:24.889Z,1.30
2023-02-25T16:55:57.869Z,1.87
2023-02-25T16:58:26.361Z,0.87
2023-02-25T17:00:53.504Z,1.37
2023-02-25T17:03:21.261Z,1.43
2023-02-25T17:06:00.632Z,1.40
2023-02-25T17:08:28.050Z,1.30
2023-02-25T17:10:56.709Z,1.43
2023-02-25T17:13:26.600Z,1.57
2023-02-25T17:15:53.826Z,1.23
2023-02-25T17:18:27.108Z,1.13
2023-02-25T17:21:05.975Z,1.27
2023-02-25T17:23:37.814Z,1.23
2023-02-25T17:26:05.222Z,0.60
2023-02-25T17:28:32.871Z,0.60
2023-02-25T17:31:13.577Z,0.80
2023-02-25T17:33:48.337Z,1.20
2023-02-25T17:36:17.271Z,1.03
2023-02-25T17:38:45.112Z,1.13
2023-02-25T17:41:19.410Z,1.10
2023-02-25T17:43:46.581Z,1.50
2023-02-25T17:46:21.202Z,0.90
2023-02-25T17:48:53.008Z,0.67
2023-02-25T17:51:28.105Z,0.70
2023-02-25T17:53:56.667Z,1.00
2023-02-25T17:56:24.961Z,0.50
2023-02-25T17:58:53.050Z,0.47
2023-02-25T18:01:22.911Z,0.57
2023-02-25T18:03:51.011Z,0.73
2023-02-25T18:06:37.185Z,0.87
2023-02-25T18:09:04.446Z,3.27
2023-02-25T18:11:35.062Z,3.17
2023-02-25T18:14:20.652Z,3.33
2023-02-25T18:16:47.720Z,1.17
2023-02-25T18:19:36.699Z,1.70
2023-02-25T18:22:04.222Z,2.27
2023-02-25T18:24:33.392Z,1.63
2023-02-25T18:27:01.906Z,0.90
2023-02-25T18:29:29.010Z,2.20
2023-02-25T18:31:56.140Z,1.30
2023-02-25T18:34:23.308Z,1.83
2023-02-25T18:36:50.514Z,1.60
2023-02-25T18:39:19.230Z,1.50
2023-02-25T18:41:46.324Z,1.87
2023-02-25T18:44:13.931Z,1.13
2023-02-25T18:46:41.033Z,1.70
2023-02-25T18:49:08.209Z,1.77
2023-02-25T18:51:35.679Z,3.10
2023-02-25T18:54:02.847Z,4.17
2023-02-25T18:56:29.936Z,3.23
2023-02-25T18:58:57.505Z,1.80
2023-02-25T19:01:27.348Z,2.83
2023-02-25T19:03:59.252Z,2.70
2023-02-25T19:06:27.425Z,4.00
2023-02-25T19:08:54.853Z,1.30
2023-02-25T19:11:23.731Z,1.20
2023-02-25T19:13:51.319Z,2.70
2023-02-25T19:16:19.188Z,1.40
2023-02-25T19:18:49.991Z,1.27
2023-02-25T19:21:18.979Z,0.90
2023-02-25T19:23:46.749Z,1.47
2023-02-25T19:26:16.084Z,1.77
2023-02-25T19:28:43.207Z,2.03
2023-02-25T19:31:11.384Z,1.73
2023-02-25T19:33:38.906Z,0.70
2023-02-25T19:36:08.336Z,1.30
2023-02-25T19:38:35.675Z,1.23
2023-02-25T19:41:04.218Z,4.60
2023-02-25T19:43:32.422Z,3.27
2023-02-25T19:45:59.570Z,1.73
2023-02-25T19:48:26.814Z,2.03
2023-02-25T19:50:53.878Z,2.07
2023-02-25T19:53:21.071Z,0.73
2023-02-25T19:55:48.153Z,3.80
2023-02-25T19:58:15.460Z,2.77
2023-02-25T20:00:45.894Z,1.40
2023-02-25T20:03:13.838Z,1.00
2023-02-25T20:05:41.549Z,2.67
2023-02-25T20:08:08.992Z,1.37
2023-02-25T20:10:36.034Z,1.50
2023-02-25T20:13:03.164Z,1.27
2023-02-25T20:15:30.337Z,1.70
2023-02-25T20:17:57.496Z,1.20
2023-02-25T20:20:24.674Z,0.60
2023-02-25T20:22:52.048Z,0.87
2023-02-25T20:25:19.227Z,0.90
2023-02-25T20:27:46.325Z,1.70
2023-02-25T20:30:15.160Z,1.53
2023-02-25T20:32:43.421Z,1.80
2023-02-25T20:35:15.354Z,1.17
2023-02-25T20:37:44.961Z,1.30
2023-02-25T20:40:12.297Z,1.47
2023-02-25T20:42:39.407Z,1.77
2023-02-25T20:45:07.219Z,1.20
2023-02-25T20:47:35.968Z,1.43
2023-02-25T20:50:03.950Z,1.43
2023-02-25T20:52:31.184Z,2.53
2023-02-25T20:54:58.401Z,2.73
2023-02-25T20:57:26.664Z,1.83
2023-02-25T20:59:54.095Z,1.40
2023-02-25T21:02:21.358Z,1.50
2023-02-25T21:04:49.014Z,2.90
2023-02-25T21:07:16.432Z,1.23
2023-02-25T21:09:43.645Z,1.33
2023-02-25T21:12:10.767Z,1.70
2023-02-25T21:14:37.835Z,1.00
2023-02-25T21:17:09.200Z,1.17
2023-02-25T21:19:38.441Z,1.97
2023-02-25T21:22:05.652Z,0.80
2023-02-25T21:24:33.590Z,1.27
2023-02-25T21:27:01.768Z,1.60
2023-02-25T21:29:28.869Z,1.53
2023-02-25T21:31:56.652Z,1.00
2023-02-25T21:34:23.786Z,1.07
2023-02-25T21:36:50.920Z,0.90
2023-02-25T21:39:18.175Z,0.60
2023-02-25T21:41:45.728Z,1.40
2023-02-25T21:44:13.563Z,2.37
2023-02-25T21:46:40.838Z,2.13
2023-02-25T21:49:10.360Z,1.07
2023-02-25T21:51:37.718Z,1.13
2023-02-25T21:54:04.813Z,1.53
2023-02-25T21:56:31.941Z,1.80
2023-02-25T21:59:00.218Z,1.73
2023-02-25T22:01:28.549Z,2.40
2023-02-25T22:03:56.120Z,1.40
2023-02-25T22:06:24.493Z,2.40
2023-02-25T22:08:52.633Z,1.30
2023-02-25T22:11:24.271Z,0.87
2023-02-25T22:13:52.628Z,1.90
2023-02-25T22:16:20.196Z,0.80
2023-02-25T22:18:47.336Z,1.93
2023-02-25T22:21:15.633Z,2.07
2023-02-25T22:23:43.592Z,1.53
2023-02-25T22:26:15.115Z,2.47
2023-02-25T22:28:42.614Z,1.33
2023-02-25T22:31:11.121Z,1.33
2023-02-25T22:33:38.335Z,1.20
2023-02-25T22:36:06.694Z,3.13
2023-02-25T22:38:35.331Z,2.53
2023-02-25T22:41:02.557Z,1.60
2023-02-25T22:43:30.493Z,1.63
2023-02-25T22:46:14.547Z,2.07
2023-02-25T22:48:42.729Z,3.37
2023-02-25T22:51:10.268Z,2.37
2023-02-25T22:53:37.929Z,1.67
2023-02-25T22:56:06.506Z,1.20
2023-02-25T22:58:34.745Z,2.57
2023-02-25T23:01:01.887Z,0.83
2023-02-25T23:03:29.152Z,2.47
2023-02-25T23:05:56.246Z,2.33
2023-02-25T23:08:24.018Z,2.23
2023-02-25T23:10:51.054Z,1.07
2023-02-25T23:13:18.118Z,1.57
2023-02-25T23:15:48.687Z,3.73
2023-02-25T23:18:16.175Z,2.30
2023-02-25T23:20:43.860Z,1.50
2023-02-25T23:23:13.510Z,2.90
2023-02-25T23:25:42.162Z,2.27
2023-02-25T23:28:09.633Z,2.60
2023-02-25T23:30:38.155Z,1.60
2023-02-25T23:33:05.826Z,1.63
2023-02-25T23:35:33.387Z,1.40
2023-02-25T23:38:00.812Z,1.20
2023-02-25T23:40:28.866Z,0.97
2023-02-25T23:42:56.231Z,2.33
2023-02-25T23:45:23.521Z,2.57
2023-02-25T23:47:50.671Z,1.37
2023-02-25T23:50:19.070Z,1.37
2023-02-25T23:52:46.942Z,1.23
2023-02-25T23:55:16.156Z,1.83
2023-02-25T23:57:43.273Z,1.00
